createdAt,value
2019-05-18T00:02:18.892Z,94695.45
2019-05-18T00:04:50.470Z,94692.03
2019-05-18T00:07:21.681Z,94691.20
2019-05-18T00:09:53.040Z,94685.01
2019-05-18T00:12:24.297Z,94688.12
2019-05-18T00:14:55.871Z,94692.69
2019-05-18T00:17:27.430Z,94692.69
2019-05-18T00:19:58.838Z,94689.58
2019-05-18T00:22:30.059Z,94686.30
2019-05-18T00:25:01.591Z,94684.36
2019-05-18T00:27:33.368Z,94688.59
2019-05-18T00:30:05.356Z,94693.17
2019-05-18T00:32:36.556Z,94689.59
2019-05-18T00:35:08.284Z,94696.27
2019-05-18T00:37:39.896Z,94693.81
2019-05-18T00:40:11.493Z,94689.91
2019-05-18T00:42:43.012Z,94688.58
2019-05-18T00:45:14.689Z,94682.40
2019-05-18T00:47:46.182Z,94675.72
2019-05-18T00:50:17.985Z,94677.98
2019-05-18T00:52:49.400Z,94681.57
2019-05-18T00:55:20.793Z,94686.66
2019-05-18T00:57:52.081Z,94688.76
2019-05-18T01:00:23.408Z,94686.63
2019-05-18T01:02:55.076Z,94686.46
2019-05-18T01:05:26.222Z,94683.52
2019-05-18T01:07:57.737Z,94681.23
2019-05-18T01:10:29.090Z,94669.98
2019-05-18T01:13:00.562Z,94665.78
2019-05-18T01:15:31.933Z,94662.17
2019-05-18T01:18:02.959Z,94665.25
2019-05-18T01:20:34.123Z,94671.47
2019-05-18T01:23:05.259Z,94669.33
2019-05-18T01:25:36.361Z,94674.22
2019-05-18T01:28:07.817Z,94668.70
2019-05-18T01:30:39.353Z,94668.67
2019-05-18T01:33:10.553Z,94671.60
2019-05-18T01:35:41.987Z,94664.45
2019-05-18T01:38:13.617Z,94670.31
2019-05-18T01:40:44.898Z,94673.21
2019-05-18T01:43:16.806Z,94670.42
2019-05-18T01:45:48.672Z,94666.95
2019-05-18T01:48:20.222Z,94667.94
2019-05-18T01:50:51.811Z,94662.21
2019-05-18T01:53:23.288Z,94669.23
2019-05-18T01:55:54.850Z,94664.02
2019-05-18T01:58:26.237Z,94658.85
2019-05-18T02:00:57.613Z,94655.76
2019-05-18T02:03:29.339Z,94656.86
2019-05-18T02:06:00.887Z,94652.13
2019-05-18T02:08:33.489Z,94658.01
2019-05-18T02:11:05.172Z,94648.76
2019-05-18T02:13:36.635Z,94637.03
2019-05-18T02:16:08.294Z,94639.97
2019-05-18T02:18:39.867Z,94642.23
2019-05-18T02:21:11.399Z,94625.47
2019-05-18T02:23:42.849Z,94640.45
2019-05-18T02:26:14.438Z,94628.89
2019-05-18T02:28:45.847Z,94639.14
2019-05-18T02:31:17.339Z,94638.98
2019-05-18T02:33:49.016Z,94644.84
2019-05-18T02:36:20.812Z,94646.96
2019-05-18T02:38:52.266Z,94638.84
2019-05-18T02:41:24.068Z,94649.20
2019-05-18T02:43:55.543Z,94644.67
2019-05-18T02:46:27.090Z,94650.68
2019-05-18T02:48:58.742Z,94647.39
2019-05-18T02:51:30.393Z,94642.53
2019-05-18T02:54:01.779Z,94639.77
2019-05-18T02:56:33.381Z,94633.27
2019-05-18T02:59:04.779Z,94632.12
2019-05-18T03:01:36.405Z,94639.92
2019-05-18T03:04:08.885Z,94638.97
2019-05-18T03:06:40.451Z,94639.63
2019-05-18T03:09:11.799Z,94637.80
2019-05-18T03:11:44.109Z,94641.20
2019-05-18T03:14:15.589Z,94651.95
2019-05-18T03:16:46.883Z,94653.27
2019-05-18T03:19:18.200Z,94650.00
2019-05-18T03:21:49.634Z,94644.45
2019-05-18T03:24:20.931Z,94642.59
2019-05-18T03:26:52.251Z,94650.90
2019-05-18T03:29:23.583Z,94655.57
2019-05-18T03:31:55.288Z,94656.02
2019-05-18T03:34:26.608Z,94656.66
2019-05-18T03:36:58.428Z,94667.27
2019-05-18T03:39:30.532Z,94665.22
2019-05-18T03:42:02.389Z,94662.97
2019-05-18T03:44:35.284Z,94664.96
2019-05-18T03:47:07.067Z,94664.49
2019-05-18T03:49:38.618Z,94674.27
2019-05-18T03:52:10.000Z,94667.78
2019-05-18T03:54:41.335Z,94668.30
2019-05-18T03:57:12.728Z,94671.89
2019-05-18T03:59:44.310Z,94674.64
2019-05-18T04:02:15.706Z,94677.35
2019-05-18T04:04:47.394Z,94683.91
2019-05-18T04:07:18.935Z,94675.69
2019-05-18T04:09:50.315Z,94684.40
2019-05-18T04:12:21.616Z,94688.39
2019-05-18T04:14:53.236Z,94681.87
2019-05-18T04:17:24.822Z,94681.90
2019-05-18T04:19:56.298Z,94679.66
2019-05-18T04:22:27.693Z,94683.23
2019-05-18T04:24:59.525Z,94686.22
2019-05-18T04:27:31.334Z,94684.62
2019-05-18T04:30:03.152Z,94681.03
2019-05-18T04:32:34.749Z,94678.73
2019-05-18T04:35:06.582Z,94679.41
2019-05-18T04:37:38.223Z,94680.41
2019-05-18T04:40:10.224Z,94680.19
2019-05-18T04:42:41.526Z,94675.45
2019-05-18T04:45:13.053Z,94683.12
2019-05-18T04:47:48.536Z,94680.01
2019-05-18T04:50:17.949Z,94684.77
2019-05-18T04:52:49.451Z,94686.52
2019-05-18T04:55:21.092Z,94694.87
2019-05-18T04:57:52.655Z,94690.47
2019-05-18T05:00:24.087Z,94690.98
2019-05-18T05:02:55.817Z,94692.08
2019-05-18T05:05:27.249Z,94697.34
2019-05-18T05:07:58.801Z,94683.36
2019-05-18T05:10:30.135Z,94687.78
2019-05-18T05:13:01.457Z,94694.48
2019-05-18T05:15:32.652Z,94694.64
2019-05-18T05:18:03.869Z,94697.09
2019-05-18T05:20:35.101Z,94702.62
2019-05-18T05:23:06.392Z,94702.95
2019-05-18T05:25:37.898Z,94706.19
2019-05-18T05:28:09.503Z,94703.27
2019-05-18T05:30:40.765Z,94699.66
2019-05-18T05:33:11.911Z,94701.30
2019-05-18T05:35:43.110Z,94704.23
2019-05-18T05:38:14.088Z,94701.33
2019-05-18T05:40:45.115Z,94703.23
2019-05-18T05:43:16.263Z,94701.78
2019-05-18T05:45:47.574Z,94709.59
2019-05-18T05:48:18.981Z,94713.64
2019-05-18T05:50:50.312Z,94710.63
2019-05-18T05:53:21.701Z,94712.59
2019-05-18T05:55:52.875Z,94706.02
2019-05-18T05:58:24.154Z,94710.13
2019-05-18T06:00:55.688Z,94707.17
2019-05-18T06:03:26.892Z,94708.04
2019-05-18T06:05:58.060Z,94714.72
2019-05-18T06:08:29.130Z,94716.88
2019-05-18T06:11:00.430Z,94710.31
2019-05-18T06:13:31.809Z,94718.81
2019-05-18T06:16:02.840Z,94713.60
2019-05-18T06:18:35.048Z,94715.59
2019-05-18T06:21:06.115Z,94714.77
2019-05-18T06:23:37.536Z,94717.03
2019-05-18T06:26:08.874Z,94713.37
2019-05-18T06:28:40.033Z,94719.61
2019-05-18T06:31:11.269Z,94718.57
2019-05-18T06:33:42.471Z,94715.25
2019-05-18T06:36:13.539Z,94721.32
2019-05-18T06:38:44.868Z,94722.38
2019-05-18T06:41:16.138Z,94710.39
2019-05-18T06:43:47.059Z,94715.80
2019-05-18T06:46:18.508Z,94715.80
2019-05-18T06:48:49.471Z,94706.36
2019-05-18T06:51:20.448Z,94700.70
2019-05-18T06:53:51.900Z,94708.06
2019-05-18T06:56:23.637Z,94709.30
2019-05-18T06:58:57.123Z,94706.64
2019-05-18T07:01:28.992Z,94705.09
2019-05-18T07:04:00.272Z,94705.09
2019-05-18T07:06:31.055Z,94714.48
2019-05-18T07:09:02.333Z,94703.87
2019-05-18T07:11:34.698Z,94700.09
2019-05-18T07:14:05.865Z,94700.30
2019-05-18T07:16:36.934Z,94698.94
2019-05-18T07:19:08.088Z,94704.46
2019-05-18T07:21:39.193Z,94703.22
2019-05-18T07:24:10.545Z,94693.52
2019-05-18T07:26:41.749Z,94696.16
2019-05-18T07:29:14.444Z,94700.81
2019-05-18T07:31:45.516Z,94694.84
2019-05-18T07:34:16.470Z,94694.97
2019-05-18T07:36:47.779Z,94697.54
2019-05-18T07:39:18.722Z,94694.13
2019-05-18T07:41:50.160Z,94694.05
2019-05-18T07:44:21.149Z,94698.67
2019-05-18T07:46:52.449Z,94690.59
2019-05-18T07:49:23.644Z,94681.31
2019-05-18T07:51:55.332Z,94682.12
2019-05-18T07:54:26.690Z,94677.73
2019-05-18T07:56:58.212Z,94669.64
2019-05-18T07:59:29.360Z,94674.39
2019-05-18T08:02:00.246Z,94675.94
2019-05-18T08:04:32.369Z,94675.09
2019-05-18T08:07:03.576Z,94675.27
2019-05-18T08:09:35.420Z,94673.23
2019-05-18T08:12:06.675Z,94677.52
2019-05-18T08:14:37.949Z,94675.40
2019-05-18T08:17:09.123Z,94670.24
2019-05-18T08:19:40.224Z,94674.55
2019-05-18T08:22:11.326Z,94671.38
2019-05-18T08:24:43.538Z,94667.33
2019-05-18T08:27:14.403Z,94674.41
2019-05-18T08:29:45.648Z,94667.63
2019-05-18T08:32:18.059Z,94664.22
2019-05-18T08:34:49.314Z,94663.93
2019-05-18T08:37:20.400Z,94653.66
2019-05-18T08:39:51.828Z,94659.67
2019-05-18T08:42:23.099Z,94654.56
2019-05-18T08:44:54.213Z,94649.79
2019-05-18T08:47:25.425Z,94644.80
2019-05-18T08:49:56.637Z,94650.99
2019-05-18T08:52:27.791Z,94649.09
2019-05-18T08:54:59.037Z,94640.50
2019-05-18T08:57:30.189Z,94638.84
2019-05-18T09:00:01.601Z,94641.91
2019-05-18T09:02:33.152Z,94643.42
2019-05-18T09:05:05.063Z,94653.95
2019-05-18T09:07:36.439Z,94651.07
2019-05-18T09:10:08.532Z,94645.95
2019-05-18T09:12:39.632Z,94642.03
2019-05-18T09:15:13.123Z,94639.64
2019-05-18T09:17:44.412Z,94637.81
2019-05-18T09:20:15.641Z,94635.17
2019-05-18T09:22:46.905Z,94630.03
2019-05-18T09:25:18.093Z,94619.16
2019-05-18T09:27:50.326Z,94613.03
2019-05-18T09:30:22.051Z,94609.31
2019-05-18T09:32:53.499Z,94615.62
2019-05-18T09:35:24.672Z,94609.56
2019-05-18T09:37:56.123Z,94599.28
2019-05-18T09:40:27.661Z,94589.45
2019-05-18T09:43:00.174Z,94589.20
2019-05-18T09:45:31.456Z,94586.66
2019-05-18T09:48:02.677Z,94582.41
2019-05-18T09:50:33.725Z,94585.94
2019-05-18T09:53:05.463Z,94588.87
2019-05-18T09:55:36.811Z,94592.34
2019-05-18T09:58:08.134Z,94581.78
2019-05-18T10:00:39.298Z,94586.95
2019-05-18T10:03:12.311Z,94576.70
2019-05-18T10:05:43.324Z,94575.86
2019-05-18T10:08:14.310Z,94570.28
2019-05-18T10:10:45.745Z,94563.35
2019-05-18T10:13:16.908Z,94562.08
2019-05-18T10:15:48.462Z,94556.07
2019-05-18T10:18:21.826Z,94556.25
2019-05-18T10:20:52.480Z,94552.27
2019-05-18T10:23:24.848Z,94555.69
2019-05-18T10:25:55.866Z,94551.61
2019-05-18T10:28:27.128Z,94548.78
2019-05-18T10:30:58.126Z,94548.86
2019-05-18T10:33:31.762Z,94542.88
2019-05-18T10:36:02.930Z,94537.81
2019-05-18T10:38:34.590Z,94536.17
2019-05-18T10:41:05.801Z,94542.80
2019-05-18T10:43:36.727Z,94537.77
2019-05-18T10:46:07.989Z,94542.40
2019-05-18T10:48:39.141Z,94534.47
2019-05-18T10:51:10.363Z,94536.16
2019-05-18T10:53:41.317Z,94535.23
2019-05-18T10:56:12.568Z,94526.88
2019-05-18T10:58:43.844Z,94530.02
2019-05-18T11:01:15.171Z,94521.84
2019-05-18T11:03:46.360Z,94520.30
2019-05-18T11:06:17.345Z,94518.14
2019-05-18T11:08:48.733Z,94504.83
2019-05-18T11:11:19.843Z,94501.52
2019-05-18T11:13:50.871Z,94496.22
2019-05-18T11:16:21.974Z,94496.80
2019-05-18T11:18:53.408Z,94492.55
2019-05-18T11:21:24.697Z,94491.44
2019-05-18T11:23:55.502Z,94487.80
2019-05-18T11:26:26.311Z,94481.86
2019-05-18T11:28:57.729Z,94480.10
2019-05-18T11:31:28.740Z,94475.87
2019-05-18T11:33:59.987Z,94468.70
2019-05-18T11:36:30.801Z,94460.05
2019-05-18T11:39:02.342Z,94459.34
2019-05-18T11:41:33.508Z,94462.55
2019-05-18T11:44:05.104Z,94461.11
2019-05-18T11:46:36.156Z,94453.45
2019-05-18T11:49:07.654Z,94453.84
2019-05-18T11:51:38.782Z,94454.05
2019-05-18T11:54:09.828Z,94445.94
2019-05-18T11:56:40.693Z,94449.00
2019-05-18T11:59:14.880Z,94444.06
2019-05-18T12:01:44.349Z,94445.43
2019-05-18T12:04:15.591Z,94443.53
2019-05-18T12:06:47.465Z,94438.48
2019-05-18T12:09:18.305Z,94436.28
2019-05-18T12:11:49.032Z,94425.72
2019-05-18T12:14:19.890Z,94428.09
2019-05-18T12:16:50.845Z,94429.02
2019-05-18T12:19:22.092Z,94420.94
2019-05-18T12:21:53.456Z,94422.61
2019-05-18T12:24:24.803Z,94426.19
2019-05-18T12:26:55.657Z,94416.91
2019-05-18T12:29:26.681Z,94414.70
2019-05-18T12:31:57.487Z,94415.53
2019-05-18T12:34:28.335Z,94408.91
2019-05-18T12:36:59.401Z,94409.94
2019-05-18T12:39:30.404Z,94401.64
2019-05-18T12:42:01.699Z,94398.55
2019-05-18T12:44:32.868Z,94400.94
2019-05-18T12:47:03.995Z,94395.10
2019-05-18T12:49:36.580Z,94390.87
2019-05-18T12:52:07.666Z,94379.66
2019-05-18T12:54:46.463Z,94388.80
2019-05-18T12:57:12.592Z,94391.50
2019-05-18T12:59:43.403Z,94382.42
2019-05-18T13:02:14.805Z,94380.05
2019-05-18T13:04:45.712Z,94384.64
2019-05-18T13:07:16.584Z,94375.08
2019-05-18T13:09:47.679Z,94381.14
2019-05-18T13:12:18.749Z,94375.52
2019-05-18T13:14:49.638Z,94379.78
2019-05-18T13:17:21.423Z,94382.05
2019-05-18T13:19:52.333Z,94375.98
2019-05-18T13:22:23.228Z,94364.27
2019-05-18T13:24:54.706Z,94364.32
2019-05-18T13:27:38.269Z,94363.52
2019-05-18T13:29:58.753Z,94357.40
2019-05-18T13:32:29.606Z,94362.23
2019-05-18T13:35:00.388Z,94342.69
2019-05-18T13:37:31.137Z,94349.89
2019-05-18T13:40:02.341Z,94351.22
2019-05-18T13:42:33.191Z,94348.53
2019-05-18T13:45:03.986Z,94343.69
2019-05-18T13:47:35.440Z,94342.89
2019-05-18T13:50:07.307Z,94333.80
2019-05-18T13:52:38.633Z,94339.10
2019-05-18T13:55:10.007Z,94339.14
2019-05-18T13:57:41.243Z,94340.77
2019-05-18T14:00:13.004Z,94339.46
2019-05-18T14:02:44.096Z,94333.59
2019-05-18T14:05:15.277Z,94334.68
2019-05-18T14:07:46.124Z,94335.53
2019-05-18T14:10:17.922Z,94324.88
2019-05-18T14:12:49.282Z,94323.01
2019-05-18T14:15:22.973Z,94328.84
2019-05-18T14:17:53.665Z,94317.91
2019-05-18T14:20:26.429Z,94325.36
2019-05-18T14:22:57.442Z,94325.59
2019-05-18T14:25:29.217Z,94329.08
2019-05-18T14:28:00.172Z,94328.30
2019-05-18T14:30:31.681Z,94322.43
2019-05-18T14:33:02.977Z,94314.73
2019-05-18T14:35:33.976Z,94312.58
2019-05-18T14:38:05.167Z,94296.56
2019-05-18T14:40:36.519Z,94316.13
2019-05-18T14:43:07.905Z,94311.59
2019-05-18T14:45:39.060Z,94316.67
2019-05-18T14:48:10.045Z,94315.61
2019-05-18T14:50:41.390Z,94310.83
2019-05-18T14:53:12.951Z,94315.91
2019-05-18T14:55:44.076Z,94317.23
2019-05-18T14:58:15.190Z,94314.28
2019-05-18T15:00:46.138Z,94308.34
2019-05-18T15:03:17.315Z,94290.50
2019-05-18T15:05:48.791Z,94297.19
2019-05-18T15:08:19.903Z,94294.54
2019-05-18T15:10:51.956Z,94288.84
2019-05-18T15:13:23.061Z,94287.51
2019-05-18T15:15:53.953Z,94290.44
2019-05-18T15:18:25.158Z,94289.03
2019-05-18T15:20:56.180Z,94286.09
2019-05-18T15:23:27.408Z,94293.77
2019-05-18T15:25:58.722Z,94294.27
2019-05-18T15:28:29.865Z,94286.80
2019-05-18T15:31:01.122Z,94293.23
2019-05-18T15:33:32.546Z,94296.43
2019-05-18T15:36:03.406Z,94293.73
2019-05-18T15:38:34.322Z,94299.58
2019-05-18T15:41:05.335Z,94292.64
2019-05-18T15:43:36.477Z,94301.20
2019-05-18T15:46:07.465Z,94299.87
2019-05-18T15:48:38.496Z,94298.51
2019-05-18T15:51:09.546Z,94301.47
2019-05-18T15:53:40.705Z,94301.73
2019-05-18T15:56:11.865Z,94299.09
2019-05-18T15:58:43.073Z,94298.59
2019-05-18T16:01:14.501Z,94299.39
2019-05-18T16:03:45.983Z,94299.09
2019-05-18T16:06:17.348Z,94308.17
2019-05-18T16:08:48.776Z,94307.87
2019-05-18T16:11:20.057Z,94306.25
2019-05-18T16:13:50.905Z,94309.92
2019-05-18T16:16:22.338Z,94307.28
2019-05-18T16:18:53.498Z,94314.98
2019-05-18T16:21:24.606Z,94307.78
2019-05-18T16:23:55.533Z,94306.98
2019-05-18T16:26:26.783Z,94309.59
2019-05-18T16:28:57.952Z,94309.52
2019-05-18T16:31:29.088Z,94318.02
2019-05-18T16:34:00.135Z,94308.39
2019-05-18T16:36:31.184Z,94309.41
2019-05-18T16:39:02.383Z,94311.28
2019-05-18T16:41:34.771Z,94308.01
2019-05-18T16:44:08.560Z,94310.67
2019-05-18T16:46:39.749Z,94314.85
2019-05-18T16:49:11.108Z,94318.62
2019-05-18T16:51:42.518Z,94314.09
2019-05-18T16:54:14.615Z,94322.08
2019-05-18T16:56:46.008Z,94322.08
2019-05-18T16:59:17.220Z,94317.52
2019-05-18T17:01:48.217Z,94311.38
2019-05-18T17:04:19.310Z,94309.75
2019-05-18T17:06:50.711Z,94313.69
2019-05-18T17:09:21.726Z,94319.44
2019-05-18T17:11:52.697Z,94318.09
2019-05-18T17:14:23.712Z,94314.90
2019-05-18T17:16:54.979Z,94315.66
2019-05-18T17:19:26.513Z,94314.02
2019-05-18T17:21:58.174Z,94315.38
2019-05-18T17:24:29.200Z,94307.25
2019-05-18T17:27:00.599Z,94308.00
2019-05-18T17:29:31.926Z,94307.67
2019-05-18T17:32:03.055Z,94319.28
2019-05-18T17:34:34.010Z,94319.70
2019-05-18T17:37:05.283Z,94325.00
2019-05-18T17:39:36.520Z,94327.88
2019-05-18T17:42:07.752Z,94326.81
2019-05-18T17:44:39.248Z,94335.52
2019-05-18T17:47:10.305Z,94329.84
2019-05-18T17:49:41.604Z,94336.42
2019-05-18T17:52:12.731Z,94333.70
2019-05-18T17:54:43.847Z,94333.63
2019-05-18T17:57:15.069Z,94343.95
2019-05-18T17:59:49.449Z,94331.25
2019-05-18T18:02:19.175Z,94338.27
2019-05-18T18:04:54.160Z,94338.70
2019-05-18T18:07:24.222Z,94342.69
2019-05-18T18:09:55.413Z,94342.88
2019-05-18T18:12:26.776Z,94349.70
2019-05-18T18:14:58.051Z,94354.17
2019-05-18T18:17:29.108Z,94354.17
2019-05-18T18:20:00.136Z,94352.30
2019-05-18T18:22:31.115Z,94359.56
2019-05-18T18:25:02.104Z,94364.48
2019-05-18T18:27:33.253Z,94372.08
2019-05-18T18:30:04.564Z,94369.61
2019-05-18T18:32:35.698Z,94372.95
2019-05-18T18:35:07.085Z,94373.56
2019-05-18T18:37:38.296Z,94376.13
2019-05-18T18:40:09.889Z,94378.68
2019-05-18T18:42:40.679Z,94376.83
2019-05-18T18:45:11.996Z,94375.56
2019-05-18T18:47:42.821Z,94386.31
2019-05-18T18:50:14.292Z,94390.12
2019-05-18T18:52:45.546Z,94393.25
2019-05-18T18:55:16.921Z,94401.56
2019-05-18T18:57:48.037Z,94399.19
2019-05-18T19:00:19.597Z,94411.64
2019-05-18T19:02:50.599Z,94412.45
2019-05-18T19:05:22.011Z,94412.05
2019-05-18T19:07:55.790Z,94417.19
2019-05-18T19:10:26.887Z,94411.32
2019-05-18T19:12:58.196Z,94411.23
2019-05-18T19:15:29.909Z,94410.67
2019-05-18T19:18:01.240Z,94413.59
2019-05-18T19:20:32.669Z,94414.30
2019-05-18T19:23:03.972Z,94409.80
2019-05-18T19:25:34.954Z,94409.27
2019-05-18T19:28:05.971Z,94410.42
2019-05-18T19:30:37.229Z,94412.94
2019-05-18T19:33:08.280Z,94412.00
2019-05-18T19:35:39.447Z,94417.62
2019-05-18T19:38:10.574Z,94407.61
2019-05-18T19:40:41.574Z,94412.70
2019-05-18T19:43:12.717Z,94405.69
2019-05-18T19:45:43.972Z,94416.49
2019-05-18T19:48:15.221Z,94411.71
2019-05-18T19:50:47.269Z,94401.73
2019-05-18T19:53:19.508Z,94404.45
2019-05-18T19:55:50.425Z,94407.13
2019-05-18T19:58:21.793Z,94402.94
2019-05-18T20:00:52.965Z,94400.06
2019-05-18T20:03:24.367Z,94404.67
2019-05-18T20:05:55.339Z,94397.23
2019-05-18T20:08:26.994Z,94390.57
2019-05-18T20:10:58.211Z,94397.91
2019-05-18T20:13:29.477Z,94405.38
2019-05-18T20:16:00.650Z,94408.14
2019-05-18T20:18:31.510Z,94421.00
2019-05-18T20:21:02.634Z,94417.79
2019-05-18T20:23:33.557Z,94422.94
2019-05-18T20:26:04.736Z,94432.41
2019-05-18T20:28:35.607Z,94439.63
2019-05-18T20:31:06.649Z,94442.13
2019-05-18T20:33:37.985Z,94442.88
2019-05-18T20:36:08.954Z,94444.73
2019-05-18T20:38:39.866Z,94439.38
2019-05-18T20:41:11.020Z,94444.95
2019-05-18T20:43:42.090Z,94443.92
2019-05-18T20:46:13.390Z,94444.13
2019-05-18T20:48:44.518Z,94446.84
2019-05-18T20:51:15.896Z,94455.44
2019-05-18T20:53:47.091Z,94455.38
2019-05-18T20:56:17.987Z,94456.56
2019-05-18T20:58:49.253Z,94455.47
2019-05-18T21:01:20.348Z,94453.02
2019-05-18T21:03:51.626Z,94449.08
2019-05-18T21:06:23.057Z,94450.00
2019-05-18T21:08:54.329Z,94453.03
2019-05-18T21:11:25.539Z,94453.89
2019-05-18T21:13:57.763Z,94448.78
2019-05-18T21:16:29.084Z,94440.82
2019-05-18T21:19:00.270Z,94447.30
2019-05-18T21:21:31.570Z,94449.55
2019-05-18T21:24:02.771Z,94448.33
2019-05-18T21:26:33.808Z,94452.11
2019-05-18T21:29:05.805Z,94461.56
2019-05-18T21:31:36.973Z,94457.34
2019-05-18T21:34:08.430Z,94459.12
2019-05-18T21:36:39.633Z,94457.05
2019-05-18T21:39:10.790Z,94461.25
2019-05-18T21:41:41.873Z,94457.97
2019-05-18T21:44:13.092Z,94450.69
2019-05-18T21:46:44.306Z,94447.20
2019-05-18T21:49:15.450Z,94448.05
2019-05-18T21:51:46.529Z,94447.03
2019-05-18T21:54:17.737Z,94450.97
2019-05-18T21:56:48.920Z,94448.62
2019-05-18T21:59:20.102Z,94449.81
2019-05-18T22:01:51.320Z,94450.16
2019-05-18T22:04:22.515Z,94445.68
2019-05-18T22:06:53.752Z,94439.08
2019-05-18T22:09:24.989Z,94443.78
2019-05-18T22:11:56.511Z,94446.25
2019-05-18T22:14:27.877Z,94441.95
2019-05-18T22:16:59.070Z,94433.63
2019-05-18T22:19:30.569Z,94451.02
2019-05-18T22:22:01.760Z,94453.72
2019-05-18T22:24:33.039Z,94456.11
2019-05-18T22:27:04.318Z,94449.88
2019-05-18T22:29:36.293Z,94449.44
2019-05-18T22:32:07.535Z,94460.28
2019-05-18T22:34:39.436Z,94456.25
2019-05-18T22:37:10.854Z,94454.31
2019-05-18T22:39:41.772Z,94458.66
2019-05-18T22:42:14.456Z,94448.25
2019-05-18T22:44:46.074Z,94447.16
2019-05-18T22:47:18.609Z,94452.63
2019-05-18T22:49:50.707Z,94448.70
2019-05-18T22:52:22.030Z,94447.34
2019-05-18T22:54:53.439Z,94446.91
2019-05-18T22:57:25.025Z,94452.26
2019-05-18T22:59:56.920Z,94455.27
2019-05-18T23:02:28.134Z,94449.25
2019-05-18T23:04:59.403Z,94455.27
2019-05-18T23:07:30.895Z,94454.59
2019-05-18T23:10:02.104Z,94457.86
2019-05-18T23:12:33.671Z,94451.52
2019-05-18T23:15:05.236Z,94452.59
2019-05-18T23:17:36.813Z,94460.64
2019-05-18T23:20:08.822Z,94448.96
2019-05-18T23:22:39.851Z,94455.81
2019-05-18T23:25:11.282Z,94455.96
2019-05-18T23:27:42.309Z,94455.08
2019-05-18T23:30:14.523Z,94456.29
2019-05-18T23:32:45.907Z,94458.70
2019-05-18T23:35:17.064Z,94462.83
2019-05-18T23:37:47.970Z,94464.28
2019-05-18T23:40:19.779Z,94461.16
2019-05-18T23:42:51.117Z,94469.52
2019-05-18T23:45:22.666Z,94466.37
2019-05-18T23:47:53.773Z,94463.12
2019-05-18T23:50:25.072Z,94464.06
2019-05-18T23:52:56.173Z,94468.72
2019-05-18T23:55:27.386Z,94468.72
2019-05-18T23:58:04.968Z,94466.20
